Winona, Ohio
Current Conditions -  °F | °C
As of 9:51 PM on Monday 20 Oct 2014 (Local Time) from KCAK Reporting Station
Light Rain Light Rain  
Wind Chill: 51°   Ceiling: 900
Heat Index: 51°   Visibility: 4mi
Dew Point: 48°   Wind: 8mph
Humidity: 89%   Direction: 230°SW
Pressure: 29.86"   Gusts: NA
Location:  40.83°N, 80.9°W
Report Text: KCAK 210151Z 23007KT 4SM -RA BR BKN009 OVC045 11/09 A2986 RMK AO2 RAB0053 SLP114 P0003 T01060089 $
Loading
Personal Weather Stations






























Interactive Weather Map
Tropical Storm Tracking
New forecast layout! Learn more

10-Day Weather Forecast

Advertisements
Track Severe Weather on mobile